Alton, NY

10:24 PM EDT on July 07, 2015 (GMT -0400)
Lyons | | Change Station
CLOSE
Current Station
Personal Weather Station
Location: Lyons, NY
Elevation: 503 ft
Nearby Weather Stations

Elev 503 ft 43.14 °N, 77.00 °W | Updated 3 seconds ago

Rain
Rain
69.8 °F
Feels Like 69.8 °F
N
0.0
Wind Variable Wind from ESE
Gusts 0.0 mph

Today
High -- | Low -- °F
--% Chance of Precip.
Yesterday
High -- | Low -- °F
Precip. -- in
5:35 AM 8:50 PM
Waning Gibbous, 59% visible
Pressure 29.88 in
Visibility 10.0 miles
Clouds Mostly Cloudy 4300 ft
Overcast 5500 ft
Dew Point 66 °F
Humidity 89%
Rainfall 0.07 in
Snow Depth Not available.
UV 0 out of 12
Pollen 3.80 out of 12
Air Quality Not available.
Flu Activity Not available.
METAR KFZY 080154Z AUTO 19006KT 10SM BKN043 OVC055 23/21 A2988 RMK AO2 RAE48 SLP116 P0001 T02280206

More Conditions Fewer Conditions

Pressure 29.88 in
Visibility 10.0 miles
Clouds Mostly Cloudy 4300 ft
Overcast 5500 ft
Dew Point 66 °F
Humidity 89%
Rainfall 0.07 in
Snow Depth Not available.
UV 0 out of 12
Pollen 3.80 out of 12
Air Quality Not available.
Flu Activity Not available.
METAR KFZY 080154Z AUTO 19006KT 10SM BKN043 OVC055 23/21 A2988 RMK AO2 RAE48 SLP116 P0001 T02280206

More Conditions Fewer Conditions

10-Day Weather Forecast

×

Almanac

Astronomy

Jul. 07, 2015 Rise Set
Actual Time
Civil Twilight
Nautical Twilight
Astronomical Twilight
Moon
Length of Visible Light
Length of Day
Tomorrow will be .
, % of the Moon is Illuminated

Today's Extremes

State Highs State Lows

Community

WunderPhotos

Upload Photos

1,836,013 photos uploaded!

WunderBlogs® & News

Nearby

Air Quality

  Air Quality AQ Index Pollutant
Not available.

Snow Depth

Station Depth Elevation

Earthquake Activity

City Distance Mag. Time & Date
Minimum magnitude displayed is 2.5.

Coastal Water Temperatures

Place Temperature

Stations

Nearby Weather Stations

Station Location Temp. Windchill Dew Point Humidity Wind Precip. Elev Updated Type